createdAt,value
2023-04-18T00:01:15.143Z,11.40
2023-04-18T00:03:46.001Z,11.10
2023-04-18T00:06:14.405Z,11.30
2023-04-18T00:08:42.371Z,11.60
2023-04-18T00:11:10.641Z,12.60
2023-04-18T00:13:39.548Z,12.20
2023-04-18T00:16:08.739Z,12.50
2023-04-18T00:18:37.184Z,11.50
2023-04-18T00:21:06.064Z,11.50
2023-04-18T00:23:34.477Z,10.90
2023-04-18T00:26:02.674Z,11.50
2023-04-18T00:28:30.603Z,11.20
2023-04-18T00:30:58.706Z,10.60
2023-04-18T00:33:26.766Z,10.60
2023-04-18T00:35:54.759Z,10.40
2023-04-18T00:38:22.714Z,9.80
2023-04-18T00:40:50.687Z,9.60
2023-04-18T00:43:18.739Z,9.70
2023-04-18T00:45:46.838Z,9.80
2023-04-18T00:48:14.960Z,9.80
2023-04-18T00:50:43.143Z,9.90
2023-04-18T00:53:11.224Z,9.70
2023-04-18T00:55:39.931Z,9.40
2023-04-18T00:58:08.313Z,9.70
2023-04-18T01:00:36.984Z,9.00
2023-04-18T01:03:05.183Z,9.70
2023-04-18T01:05:33.254Z,10.50
2023-04-18T01:08:01.509Z,10.20
2023-04-18T01:10:31.212Z,10.30
2023-04-18T01:13:13.518Z,10.50
2023-04-18T01:15:47.391Z,10.80
2023-04-18T01:18:17.128Z,11.80
2023-04-18T01:20:47.633Z,11.60
2023-04-18T01:23:17.269Z,11.60
2023-04-18T01:25:46.796Z,11.00
2023-04-18T01:28:15.357Z,11.00
2023-04-18T01:30:43.449Z,11.60
2023-04-18T01:33:11.507Z,11.30
2023-04-18T01:35:39.515Z,10.90
2023-04-18T01:38:07.434Z,10.70
2023-04-18T01:40:35.436Z,10.80
2023-04-18T01:43:03.406Z,10.80
2023-04-18T01:45:31.432Z,11.00
2023-04-18T01:47:59.535Z,11.00
2023-04-18T01:50:27.680Z,10.50
2023-04-18T01:52:55.671Z,11.60
2023-04-18T01:55:23.729Z,11.50
2023-04-18T01:57:51.773Z,10.80
2023-04-18T02:00:21.219Z,11.40
2023-04-18T02:02:50.598Z,11.70
2023-04-18T02:05:18.972Z,12.10
2023-04-18T02:07:47.810Z,12.20
2023-04-18T02:10:15.839Z,11.80
2023-04-18T02:12:44.191Z,12.20
2023-04-18T02:15:12.311Z,12.50
2023-04-18T02:17:42.037Z,12.30
2023-04-18T02:20:11.052Z,11.60
2023-04-18T02:22:39.705Z,11.00
2023-04-18T02:25:08.306Z,11.30
2023-04-18T02:27:36.752Z,11.30
2023-04-18T02:30:05.810Z,10.90
2023-04-18T02:32:35.139Z,11.50
2023-04-18T02:35:03.413Z,10.80
2023-04-18T02:37:31.463Z,10.90
2023-04-18T02:39:59.423Z,11.40
2023-04-18T02:42:31.559Z,10.90
2023-04-18T02:44:59.557Z,11.10
2023-04-18T02:47:28.205Z,11.70
2023-04-18T02:49:56.295Z,11.90
2023-04-18T02:52:25.590Z,11.40
2023-04-18T02:54:53.756Z,11.00
2023-04-18T02:57:26.055Z,11.80
2023-04-18T03:00:23.327Z,12.20
2023-04-18T03:03:10.670Z,12.00
2023-04-18T03:05:43.121Z,12.00
2023-04-18T03:08:11.798Z,12.60
2023-04-18T03:10:40.167Z,12.50
2023-04-18T03:13:08.813Z,12.80
2023-04-18T03:15:37.705Z,12.40
2023-04-18T03:18:06.265Z,12.30
2023-04-18T03:20:37.786Z,12.60
2023-04-18T03:23:07.937Z,12.80
2023-04-18T03:25:36.004Z,13.50
2023-04-18T03:28:04.762Z,12.90
2023-04-18T03:30:33.434Z,12.60
2023-04-18T03:33:02.920Z,12.80
2023-04-18T03:35:31.594Z,12.80
2023-04-18T03:37:59.793Z,13.40
2023-04-18T03:40:32.573Z,12.60
2023-04-18T03:43:05.659Z,12.60
2023-04-18T03:45:33.684Z,12.80
2023-04-18T03:48:01.891Z,12.40
2023-04-18T03:50:30.281Z,12.90
2023-04-18T03:52:58.533Z,12.60
2023-04-18T03:55:26.730Z,12.80
2023-04-18T03:57:55.208Z,12.30
2023-04-18T04:00:27.798Z,12.10
2023-04-18T04:03:02.038Z,12.90
2023-04-18T04:05:30.291Z,12.80
2023-04-18T04:07:58.457Z,12.50
2023-04-18T04:10:26.424Z,12.90
2023-04-18T04:12:54.410Z,13.20
2023-04-18T04:15:22.574Z,13.50
2023-04-18T04:17:55.765Z,13.00
2023-04-18T04:20:25.973Z,13.60
2023-04-18T04:23:01.421Z,13.40
2023-04-18T04:25:29.888Z,14.70
2023-04-18T04:28:01.653Z,20.30
2023-04-18T04:30:29.937Z,13.70
2023-04-18T04:32:58.453Z,14.10
2023-04-18T04:35:26.990Z,14.00
2023-04-18T04:37:54.989Z,13.70
2023-04-18T04:40:31.501Z,14.20
2023-04-18T04:43:26.147Z,13.50
2023-04-18T04:45:54.327Z,13.70
2023-04-18T04:48:25.329Z,13.50
2023-04-18T04:50:56.024Z,13.70
2023-04-18T04:53:26.434Z,13.90
2023-04-18T04:55:54.544Z,13.90
2023-04-18T04:58:23.294Z,13.20
2023-04-18T05:01:04.645Z,13.50
2023-04-18T05:03:32.954Z,13.80
2023-04-18T05:06:01.385Z,13.60
2023-04-18T05:08:29.498Z,13.50
2023-04-18T05:10:57.536Z,13.60
2023-04-18T05:13:25.455Z,13.40
2023-04-18T05:15:53.466Z,13.80
2023-04-18T05:18:21.402Z,12.70
2023-04-18T05:20:49.495Z,13.00
2023-04-18T05:23:17.423Z,13.30
2023-04-18T05:25:45.402Z,13.80
2023-04-18T05:28:13.431Z,13.70
2023-04-18T05:30:41.788Z,14.10
2023-04-18T05:33:09.853Z,14.10
2023-04-18T05:35:37.876Z,14.50
2023-04-18T05:38:06.197Z,14.30
2023-04-18T05:40:34.270Z,13.80
2023-04-18T05:43:02.231Z,13.50
2023-04-18T05:45:30.309Z,13.80
2023-04-18T05:47:58.328Z,14.40
2023-04-18T05:50:26.292Z,14.80
2023-04-18T05:52:54.263Z,14.30
2023-04-18T05:55:22.286Z,14.00
2023-04-18T05:57:50.207Z,13.80
2023-04-18T06:00:19.219Z,13.90
2023-04-18T06:02:47.363Z,14.30
2023-04-18T06:05:15.635Z,15.50
2023-04-18T06:07:43.909Z,16.90
2023-04-18T06:10:13.650Z,15.60
2023-04-18T06:12:42.366Z,15.70
2023-04-18T06:15:10.975Z,15.40
2023-04-18T06:17:39.746Z,15.50
2023-04-18T06:20:08.178Z,14.70
2023-04-18T06:22:36.179Z,14.30
2023-04-18T06:25:04.714Z,14.50
2023-04-18T06:27:32.733Z,14.40
2023-04-18T06:30:00.696Z,14.50
2023-04-18T06:32:28.713Z,13.90
2023-04-18T06:34:56.841Z,13.40
2023-04-18T06:37:25.027Z,13.70
2023-04-18T06:39:52.952Z,13.60
2023-04-18T06:42:22.595Z,14.00
2023-04-18T06:44:50.963Z,14.00
2023-04-18T06:47:18.937Z,13.40
2023-04-18T06:49:46.958Z,13.90
2023-04-18T06:52:14.881Z,13.90
2023-04-18T06:54:42.939Z,14.10
2023-04-18T06:57:11.119Z,14.00
2023-04-18T06:59:40.922Z,14.40
2023-04-18T07:02:09.037Z,14.90
2023-04-18T07:04:37.338Z,14.40
2023-04-18T07:07:05.440Z,14.70
2023-04-18T07:09:33.507Z,14.50
2023-04-18T07:12:01.463Z,14.40
2023-04-18T07:14:30.143Z,14.60
2023-04-18T07:17:01.150Z,14.20
2023-04-18T07:19:29.105Z,14.60
2023-04-18T07:21:57.237Z,15.10
2023-04-18T07:24:25.335Z,13.50
2023-04-18T07:26:55.040Z,14.60
2023-04-18T07:29:23.407Z,13.70
2023-04-18T07:31:52.181Z,13.70
2023-04-18T07:34:22.208Z,14.30
2023-04-18T07:36:50.264Z,14.40
2023-04-18T07:39:18.241Z,13.50
2023-04-18T07:41:46.333Z,12.50
2023-04-18T07:44:14.620Z,13.40
2023-04-18T07:46:42.985Z,13.80
2023-04-18T07:49:11.094Z,12.60
2023-04-18T07:51:39.310Z,13.30
2023-04-18T07:54:07.393Z,13.50
2023-04-18T07:56:35.358Z,13.60
2023-04-18T07:59:03.377Z,13.00
2023-04-18T08:01:31.724Z,13.10
2023-04-18T08:04:02.076Z,12.60
2023-04-18T08:06:30.905Z,13.70
2023-04-18T08:08:59.294Z,13.50
2023-04-18T08:11:27.607Z,12.00
2023-04-18T08:13:55.739Z,12.60
2023-04-18T08:16:23.852Z,11.90
2023-04-18T08:18:52.332Z,11.40
2023-04-18T08:21:20.556Z,11.80
2023-04-18T08:23:48.730Z,11.60
2023-04-18T08:26:16.766Z,11.20
2023-04-18T08:28:46.565Z,10.80
2023-04-18T08:31:16.474Z,10.70
2023-04-18T08:33:44.498Z,11.40
2023-04-18T08:36:12.567Z,11.60
2023-04-18T08:38:40.703Z,11.70
2023-04-18T08:41:08.878Z,11.30
2023-04-18T08:43:38.356Z,10.20
2023-04-18T08:46:06.910Z,9.60
2023-04-18T08:48:35.064Z,11.60
2023-04-18T08:51:03.226Z,10.60
2023-04-18T08:53:33.933Z,11.30
2023-04-18T08:56:03.289Z,12.40
2023-04-18T08:58:33.968Z,12.40
2023-04-18T09:01:02.647Z,10.40
2023-04-18T09:03:39.184Z,9.90
2023-04-18T09:06:18.805Z,9.60
2023-04-18T09:09:10.708Z,8.70
2023-04-18T09:11:38.647Z,8.70
2023-04-18T09:14:06.663Z,8.60
2023-04-18T09:16:50.924Z,7.90
2023-04-18T09:19:19.330Z,12.00
2023-04-18T09:21:58.418Z,13.00
2023-04-18T09:24:28.545Z,12.50
2023-04-18T09:26:58.750Z,12.30
2023-04-18T09:29:43.557Z,12.70
2023-04-18T09:32:11.563Z,12.40
2023-04-18T09:34:42.701Z,12.80
2023-04-18T09:37:13.681Z,13.70
2023-04-18T09:39:44.596Z,13.50
2023-04-18T09:42:12.858Z,13.00
2023-04-18T09:45:05.752Z,12.70
2023-04-18T09:47:36.530Z,11.70
2023-04-18T09:50:07.496Z,10.90
2023-04-18T09:52:38.011Z,12.10
2023-04-18T09:55:09.443Z,12.70
2023-04-18T09:57:41.855Z,12.60
2023-04-18T10:00:20.491Z,13.40
2023-04-18T10:02:59.957Z,13.80
2023-04-18T10:05:33.917Z,12.50
2023-04-18T10:08:02.614Z,11.80
2023-04-18T10:10:30.981Z,13.80
2023-04-18T10:13:01.505Z,14.30
2023-04-18T10:15:30.898Z,14.00
2023-04-18T10:18:09.263Z,13.50
2023-04-18T10:20:37.222Z,14.00
2023-04-18T10:23:36.288Z,13.50
2023-04-18T10:26:06.295Z,13.70
2023-04-18T10:28:57.477Z,13.10
2023-04-18T10:31:29.573Z,14.20
2023-04-18T10:36:30.458Z,13.50
2023-04-18T10:39:20.139Z,13.20
2023-04-18T10:41:50.726Z,13.20
2023-04-18T10:44:23.726Z,13.60
2023-04-18T10:46:52.116Z,13.70
2023-04-18T10:49:24.029Z,14.10
2023-04-18T10:51:59.469Z,13.70
2023-04-18T10:54:28.706Z,14.30
2023-04-18T10:56:58.703Z,14.30
2023-04-18T10:59:28.947Z,14.80
2023-04-18T11:02:03.869Z,15.10
2023-04-18T11:04:32.095Z,14.90
2023-04-18T11:07:00.336Z,14.70
2023-04-18T11:09:28.345Z,14.30
2023-04-18T11:12:10.787Z,14.30
2023-04-18T11:14:43.389Z,14.20
2023-04-18T11:17:22.094Z,13.60
2023-04-18T11:19:51.722Z,13.80
2023-04-18T11:22:19.683Z,15.20
2023-04-18T11:24:47.847Z,15.40
2023-04-18T11:27:16.273Z,14.60
2023-04-18T11:29:44.314Z,15.40
2023-04-18T11:32:12.742Z,14.40
2023-04-18T11:34:41.151Z,15.20
2023-04-18T11:37:09.197Z,15.10
2023-04-18T11:39:44.258Z,15.20
2023-04-18T11:42:12.634Z,15.80
2023-04-18T11:44:44.090Z,15.40
2023-04-18T11:47:25.008Z,15.10
2023-04-18T11:49:57.630Z,16.10
2023-04-18T11:52:31.460Z,15.90
2023-04-18T11:55:25.019Z,15.90
2023-04-18T11:57:57.171Z,15.60
2023-04-18T12:00:44.783Z,16.30
2023-04-18T12:03:17.345Z,16.10
2023-04-18T12:05:45.873Z,15.30
2023-04-18T12:08:23.152Z,15.40
2023-04-18T12:10:52.501Z,15.80
2023-04-18T12:13:31.646Z,16.00
2023-04-18T12:16:02.316Z,15.50
2023-04-18T12:18:31.719Z,15.70
2023-04-18T12:21:02.469Z,15.60
2023-04-18T12:23:35.625Z,15.50
2023-04-18T12:26:08.610Z,15.90
2023-04-18T12:28:36.790Z,15.50
2023-04-18T12:31:08.360Z,15.20
2023-04-18T12:33:36.874Z,15.60
2023-04-18T12:36:06.192Z,15.50
2023-04-18T12:38:35.516Z,15.30
2023-04-18T12:41:03.900Z,15.20
2023-04-18T12:43:32.061Z,15.50
2023-04-18T12:46:00.149Z,15.60
2023-04-18T12:48:28.382Z,16.30
2023-04-18T12:50:56.441Z,15.10
2023-04-18T12:53:24.550Z,14.50
2023-04-18T12:55:52.916Z,15.10
2023-04-18T12:58:21.660Z,14.00
2023-04-18T13:00:49.968Z,14.20
2023-04-18T13:03:18.192Z,14.90
2023-04-18T13:05:46.548Z,14.60
2023-04-18T13:08:17.773Z,14.70
2023-04-18T13:10:47.765Z,14.30
2023-04-18T13:13:16.143Z,13.90
2023-04-18T13:15:44.329Z,13.20
2023-04-18T13:18:12.499Z,13.70
2023-04-18T13:20:40.735Z,14.10
2023-04-18T13:23:08.882Z,13.90
2023-04-18T13:25:36.945Z,13.30
2023-04-18T13:28:05.564Z,13.80
2023-04-18T13:30:35.872Z,13.40
2023-04-18T13:33:04.316Z,18.60
2023-04-18T13:35:32.301Z,13.90
2023-04-18T13:38:00.410Z,12.70
2023-04-18T13:40:28.751Z,13.00
2023-04-18T13:42:59.493Z,14.00
2023-04-18T13:45:27.788Z,12.60
2023-04-18T13:47:56.260Z,12.80
2023-04-18T13:50:24.656Z,12.40
2023-04-18T13:52:54.653Z,11.00
2023-04-18T13:55:23.053Z,10.90
2023-04-18T13:57:51.353Z,11.30
2023-04-18T14:00:20.624Z,11.20
2023-04-18T14:02:49.738Z,10.30
2023-04-18T14:05:18.016Z,10.80
2023-04-18T14:07:46.026Z,10.80
2023-04-18T14:10:14.182Z,10.50
2023-04-18T14:12:48.320Z,10.40
2023-04-18T14:18:55.416Z,10.50
2023-04-18T14:21:23.582Z,10.60
2023-04-18T14:23:52.738Z,10.00
2023-04-18T14:26:21.514Z,10.20
2023-04-18T14:28:49.604Z,10.00
2023-04-18T14:31:17.570Z,10.20
2023-04-18T14:33:46.509Z,9.30
2023-04-18T14:36:17.340Z,9.50
2023-04-18T14:38:49.598Z,9.10
2023-04-18T14:41:17.642Z,9.10
2023-04-18T14:43:45.843Z,9.60
2023-04-18T14:46:16.676Z,9.10
2023-04-18T14:48:46.618Z,8.30
2023-04-18T14:51:16.201Z,8.80
2023-04-18T14:53:45.052Z,9.20
2023-04-18T14:56:13.055Z,8.90
2023-04-18T14:58:41.151Z,9.00
2023-04-18T15:01:09.200Z,8.80
2023-04-18T15:03:37.348Z,9.20
2023-04-18T15:06:05.718Z,9.50
2023-04-18T15:08:34.650Z,8.80
2023-04-18T15:11:07.620Z,8.80
2023-04-18T15:13:36.919Z,9.50
2023-04-18T15:16:05.403Z,9.10
2023-04-18T15:18:33.463Z,9.20
2023-04-18T15:21:01.684Z,8.90
2023-04-18T15:23:29.720Z,9.20
2023-04-18T15:25:57.781Z,10.30
2023-04-18T15:28:26.160Z,9.70
2023-04-18T15:30:54.542Z,9.30
2023-04-18T15:33:25.263Z,9.70
2023-04-18T15:35:55.871Z,8.80
2023-04-18T15:38:23.823Z,9.70
2023-04-18T15:40:51.899Z,8.90
2023-04-18T15:43:20.305Z,9.80
2023-04-18T15:45:49.205Z,9.40
2023-04-18T15:48:17.357Z,9.20
2023-04-18T15:50:51.298Z,9.40
2023-04-18T15:53:19.926Z,9.70
2023-04-18T15:55:47.895Z,10.10
2023-04-18T15:58:15.936Z,9.20
2023-04-18T16:00:44.505Z,9.50
2023-04-18T16:03:12.716Z,10.80
2023-04-18T16:05:40.838Z,10.10
2023-04-18T16:08:09.539Z,10.40
2023-04-18T16:10:38.214Z,9.40
2023-04-18T16:13:06.888Z,7.80
2023-04-18T16:15:35.981Z,8.40
2023-04-18T16:18:04.486Z,7.80
2023-04-18T16:20:33.509Z,7.70
2023-04-18T16:23:01.534Z,7.90
2023-04-18T16:25:29.490Z,7.50
2023-04-18T16:27:57.572Z,7.40
2023-04-18T16:30:25.528Z,7.10
2023-04-18T16:32:54.487Z,8.20
2023-04-18T16:35:22.666Z,7.60
2023-04-18T16:37:50.837Z,9.50
2023-04-18T16:40:18.779Z,9.40
2023-04-18T16:42:47.123Z,7.40
2023-04-18T16:45:15.162Z,7.30
2023-04-18T16:47:43.104Z,8.20
2023-04-18T16:50:11.398Z,8.10
2023-04-18T16:52:39.814Z,7.70
2023-04-18T16:55:08.118Z,7.70
2023-04-18T16:57:36.063Z,8.70
2023-04-18T17:00:05.150Z,10.40
2023-04-18T17:02:33.302Z,9.10
2023-04-18T17:05:01.519Z,8.60
2023-04-18T17:07:30.493Z,8.10
2023-04-18T17:09:58.658Z,7.10
2023-04-18T17:12:27.350Z,9.00
2023-04-18T17:14:55.332Z,8.20
2023-04-18T17:17:24.156Z,9.40
2023-04-18T17:19:52.173Z,6.60
2023-04-18T17:22:20.136Z,8.40
2023-04-18T17:24:48.126Z,8.60
2023-04-18T17:27:16.176Z,8.30
2023-04-18T17:29:44.152Z,9.30
2023-04-18T17:32:12.253Z,9.50
2023-04-18T17:34:40.291Z,6.40
2023-04-18T17:37:08.248Z,9.90
2023-04-18T17:39:36.219Z,8.70
2023-04-18T17:42:04.297Z,9.00
2023-04-18T17:44:32.301Z,8.00
2023-04-18T17:47:01.116Z,8.60
2023-04-18T17:49:34.677Z,7.80
2023-04-18T17:52:04.367Z,8.70
2023-04-18T17:54:32.837Z,8.00
2023-04-18T17:57:02.192Z,7.40
2023-04-18T17:59:30.613Z,7.20
2023-04-18T18:01:59.664Z,8.80
2023-04-18T18:04:28.014Z,8.70
2023-04-18T18:06:57.087Z,8.60
2023-04-18T18:09:25.317Z,8.00
2023-04-18T18:11:55.821Z,9.00
2023-04-18T18:14:24.466Z,8.10
2023-04-18T18:16:53.021Z,8.40
2023-04-18T18:19:21.128Z,7.40
2023-04-18T18:21:49.396Z,6.40
2023-04-18T18:24:18.790Z,8.30
2023-04-18T18:26:46.922Z,7.70
2023-04-18T18:29:14.970Z,10.00
2023-04-18T18:31:43.220Z,10.30
2023-04-18T18:34:11.570Z,9.70
2023-04-18T18:36:40.230Z,9.80
2023-04-18T18:39:08.306Z,8.00
2023-04-18T18:41:36.436Z,8.10
2023-04-18T18:44:04.490Z,8.00
2023-04-18T18:46:32.519Z,7.50
2023-04-18T18:49:00.513Z,6.70
2023-04-18T18:51:29.292Z,8.50
2023-04-18T18:53:57.388Z,7.10
2023-04-18T18:56:25.450Z,6.80
2023-04-18T18:58:55.664Z,8.90
2023-04-18T19:01:24.219Z,7.00
2023-04-18T19:03:52.623Z,8.10
2023-04-18T19:06:20.807Z,8.20
2023-04-18T19:08:48.748Z,7.10
2023-04-18T19:11:18.322Z,7.50
2023-04-18T19:13:46.351Z,7.10
2023-04-18T19:16:14.334Z,6.40
2023-04-18T19:18:47.072Z,7.80
2023-04-18T19:21:16.059Z,7.60
2023-04-18T19:23:44.073Z,8.60
2023-04-18T19:26:12.130Z,9.20
2023-04-18T19:28:40.388Z,10.50
2023-04-18T19:31:09.674Z,6.70
2023-04-18T19:33:38.356Z,7.30
2023-04-18T19:36:06.361Z,7.40
2023-04-18T19:38:34.939Z,7.20
2023-04-18T19:41:02.900Z,8.00
2023-04-18T19:43:30.879Z,9.10
2023-04-18T19:45:59.340Z,9.40
2023-04-18T19:48:27.298Z,9.20
2023-04-18T19:50:56.580Z,8.10
2023-04-18T19:53:24.795Z,8.10
2023-04-18T19:55:55.018Z,9.00
2023-04-18T19:58:49.530Z,6.50
2023-04-18T20:01:19.281Z,7.20
2023-04-18T20:03:48.324Z,6.70
2023-04-18T20:06:18.229Z,6.60
2023-04-18T20:08:46.309Z,8.00
2023-04-18T20:11:14.569Z,8.60
2023-04-18T20:13:42.892Z,8.10
2023-04-18T20:16:12.451Z,6.60
2023-04-18T20:18:41.768Z,6.50
2023-04-18T20:21:10.964Z,5.40
2023-04-18T20:23:41.801Z,5.80
2023-04-18T20:26:10.170Z,6.80
2023-04-18T20:28:38.114Z,6.50
2023-04-18T20:31:06.260Z,6.90
2023-04-18T20:33:34.675Z,7.30
2023-04-18T20:36:02.645Z,7.10
2023-04-18T20:38:30.721Z,8.10
2023-04-18T20:40:59.047Z,8.60
2023-04-18T20:43:28.119Z,6.00
2023-04-18T20:45:57.922Z,6.80
2023-04-18T20:48:26.193Z,7.50
2023-04-18T20:50:54.243Z,6.50
2023-04-18T20:53:25.292Z,6.50
2023-04-18T20:55:53.356Z,6.70
2023-04-18T20:58:21.431Z,8.10
2023-04-18T21:00:49.653Z,5.80
2023-04-18T21:03:17.704Z,7.00
2023-04-18T21:05:45.956Z,6.50
2023-04-18T21:08:14.553Z,8.30
2023-04-18T21:10:42.605Z,6.80
2023-04-18T21:13:12.755Z,7.40
2023-04-18T21:15:42.389Z,8.20
2023-04-18T21:18:10.810Z,6.40
2023-04-18T21:20:38.824Z,7.50
2023-04-18T21:23:06.844Z,7.70
2023-04-18T21:25:35.191Z,6.90
2023-04-18T21:28:03.196Z,6.30
2023-04-18T21:30:31.366Z,8.70
2023-04-18T21:32:59.411Z,7.20
2023-04-18T21:35:29.900Z,7.10
2023-04-18T21:37:58.212Z,8.20
2023-04-18T21:40:27.017Z,6.70
2023-04-18T21:42:54.993Z,6.50
2023-04-18T21:45:23.233Z,6.60
2023-04-18T21:47:52.640Z,7.70
2023-04-18T21:50:20.861Z,8.00
2023-04-18T21:52:48.810Z,8.10
2023-04-18T21:55:17.901Z,7.80
2023-04-18T21:57:45.973Z,8.80
2023-04-18T22:00:14.310Z,8.10
2023-04-18T22:02:42.337Z,7.50
2023-04-18T22:05:12.979Z,8.90
2023-04-18T22:07:54.393Z,9.00
2023-04-18T22:10:25.749Z,7.90
2023-04-18T22:12:58.564Z,9.30
2023-04-18T22:15:30.679Z,8.10
2023-04-18T22:17:59.271Z,9.20
2023-04-18T22:20:27.290Z,8.30
2023-04-18T22:22:55.311Z,7.40
2023-04-18T22:25:23.345Z,8.50
2023-04-18T22:27:51.286Z,9.00
2023-04-18T22:30:19.234Z,8.20
2023-04-18T22:32:47.780Z,6.70
2023-04-18T22:35:16.062Z,7.10
2023-04-18T22:37:44.112Z,7.40
2023-04-18T22:40:13.078Z,8.80
2023-04-18T22:42:41.007Z,6.60
2023-04-18T22:45:09.532Z,10.60
2023-04-18T22:47:37.554Z,9.00
2023-04-18T22:50:06.363Z,8.10
2023-04-18T22:52:34.958Z,10.00
2023-04-18T22:55:03.491Z,8.00
2023-04-18T22:57:31.522Z,7.60
2023-04-18T22:59:59.522Z,7.10
2023-04-18T23:02:27.777Z,7.30
2023-04-18T23:04:59.203Z,8.80
2023-04-18T23:07:27.111Z,8.80
2023-04-18T23:09:55.081Z,10.10
2023-04-18T23:12:23.116Z,8.60
2023-04-18T23:14:51.157Z,8.00
2023-04-18T23:17:19.157Z,8.30
2023-04-18T23:19:47.230Z,9.30
2023-04-18T23:22:15.207Z,11.40
2023-04-18T23:24:43.128Z,10.30
2023-04-18T23:27:11.129Z,10.90
2023-04-18T23:29:39.626Z,9.90
2023-04-18T23:32:07.709Z,10.70
2023-04-18T23:34:35.752Z,9.30
2023-04-18T23:37:03.740Z,8.10
2023-04-18T23:39:31.706Z,9.50
2023-04-18T23:41:59.671Z,10.30
2023-04-18T23:44:27.680Z,10.90
2023-04-18T23:46:55.742Z,9.30
2023-04-18T23:49:23.962Z,9.90
2023-04-18T23:51:51.863Z,10.30
2023-04-18T23:54:19.905Z,12.40
2023-04-18T23:56:47.821Z,12.70
2023-04-18T23:59:15.842Z,12.70
